Craynor, Kentucky
Current Conditions -  °F | °C
As of 9:15 PM on Friday 28 Nov 2014 (Local Time) from KPBX Reporting Station
Clear Clear  
Wind Chill: 27°   Ceiling: Unl
Heat Index: 31°   Visibility: 10mi
Dew Point: 21°   Wind: 5mph
Humidity: 65%   Direction: 140°SE
Pressure: 30.18"   Gusts: NA
Location:  37.4843°N, 82.6492°W
Report Text: KPBX 290215Z AUTO 14004KT 10SM CLR 00/M06 A3018 RMK AO2 T10041063
Loading
Personal Weather Stations






























Interactive Weather Map New forecast layout! Learn more

10-Day Weather Forecast

Advertisements
Track Severe Weather on mobile